EST,Max TemperatureF,Mean TemperatureF,Min TemperatureF,Max Dew PointF,MeanDew PointF,Min DewpointF,Max Humidity, Mean Humidity, Min Humidity, Max Sea Level PressureIn, Mean Sea Level PressureIn, Min Sea Level PressureIn, Max VisibilityMiles, Mean VisibilityMiles, Min VisibilityMiles, Max Wind SpeedMPH, Mean Wind SpeedMPH, Max Gust SpeedMPH,PrecipitationIn, CloudCover, Events, WindDirDegrees
2012-12-1,17,10,3,15,6,1,96,82,70,30.68,30.61,30.51,,,,7,3,,0.03,,,105
2012-12-2,39,28,17,38,29,15,100,97,92,30.49,30.19,29.88,,,,7,4,,0.34,,,163
2012-12-3,41,36,32,40,33,29,100,90,78,30.28,30.09,29.88,,,,18,5,29,0.01,,,324
2012-12-4,41,34,30,41,34,29,100,96,88,30.28,30.15,29.89,,,,9,4,17,0.00,,,150
2012-12-5,46,36,25,46,31,16,100,81,64,29.99,29.84,29.75,,,,24,8,34,0.37,,,303
2012-12-6,26,22,17,16,13,10,81,69,53,30.28,30.20,30.01,,,,22,13,33,0.00,,,332
2012-12-7,32,25,18,26,18,11,85,73,59,30.23,30.11,30.01,,,,8,4,,0.00,,,138
2012-12-8,33,30,26,33,27,21,100,87,66,30.02,29.93,29.81,,,,6,1,,0.00,,,80
2012-12-9,36,30,24,34,24,19,96,78,66,30.31,30.15,29.84,,,,15,6,25,0.00,,,327
2012-12-10,34,27,21,33,25,18,100,93,75,30.20,29.79,29.49,,,,14,7,20,0.76,,,119
2012-12-11,35,25,15,33,19,10,92,79,63,30.09,29.80,29.49,,,,17,10,26,0.00,,,314
2012-12-12,28,21,14,19,14,10,88,76,58,30.34,30.26,30.11,,,,12,6,18,0.00,,,343
2012-12-13,32,28,23,22,19,16,91,76,56,30.40,30.32,30.20,,,,8,2,,0.00,,,322
2012-12-14,35,30,21,27,21,13,85,70,57,30.17,30.04,29.92,,,,18,3,28,0.00,,,316
2012-12-15,19,13,7,13,3,-2,81,66,49,30.38,30.29,30.12,,,,16,12,29,0.00,,,341
2012-12-16,17,10,3,11,2,-2,88,68,49,30.35,30.29,30.22,,,,8,3,,0.03,,,36
2012-12-17,28,21,14,28,17,8,96,85,71,30.23,30.13,30.01,,,,10,5,20,0.39,,,126
2012-12-18,33,32,30,32,30,29,96,93,88,29.99,29.71,29.52,,,,24,17,34,0.27,,,97
2012-12-19,33,30,28,30,28,26,96,90,85,29.99,29.72,29.52,,,,15,9,21,0.44,,,18
2012-12-20,28,26,24,25,24,21,96,90,81,30.19,30.12,30.00,,,,9,5,,0.05,,,352
2012-12-21,39,32,24,39,30,23,100,96,92,30.05,29.57,29.08,,,,34,12,51,1.21,,,123
2012-12-22,37,28,17,38,26,11,100,93,77,29.42,29.23,29.07,,,,14,7,28,0.16,,,215
2012-12-23,17,14,10,12,8,5,88,76,68,29.73,29.61,29.44,,,,12,8,26,0.01,,,301
2012-12-24,17,13,9,12,7,4,84,75,62,30.02,29.91,29.73,,,,12,6,22,0.00,,,310
2012-12-25,24,16,9,12,9,5,88,77,60,30.22,30.07,30.00,,,,13,8,17,0.00,,,341
2012-12-26,19,14,8,10,7,4,92,80,68,30.33,30.26,30.18,,,,17,8,24,0.00,,,344
2012-12-27,23,19,15,21,18,10,96,89,80,30.15,29.82,29.59,,,,16,10,31,0.93,,,48
2012-12-28,23,20,15,18,16,11,92,85,78,29.89,29.76,29.61,,,,20,13,37,0.04,,,320
2012-12-29,21,18,15,17,15,12,92,87,75,29.94,29.81,29.52,,,,16,8,23,0.02,,,344
2012-12-30,17,10,3,14,8,-2,88,83,76,29.69,29.53,29.44,,,,23,14,40,0.26,,,319
2012-12-31,21,12,3,20,8,-2,92,78,65,29.82,29.73,29.57,,,,25,15,44,0.01,,,307